Time;durP1;ratioP1;P1;durP2;ratioP2;P2;SDS_P1;SDS_P2;PMS_P1;PMS_P2;Temp;Humidity;BMP_temperature;BMP_pressure;BME280_temperature;BME280_humidity;BME280_pressure;Samples;Min_cycle;Max_cycle;Signal;HPM_P1;HPM_P2
2022/08/04 00:00:05;;;;;;;2.70;1.40;;;25.60;61.90;;;;;;5054211;28;20028;-27
2022/08/04 00:02:48;;;;;;;3.65;1.75;;;25.50;62.00;;;;;;5054022;28;20121;-26
2022/08/04 00:05:33;;;;;;;1.80;1.40;;;25.50;62.00;;;;;;5054136;28;20067;-30
2022/08/04 00:08:20;;;;;;;1.60;1.50;;;25.50;62.10;;;;;;5053589;28;20041;-26
2022/08/04 00:10:49;;;;;;;2.58;1.67;;;25.40;62.10;;;;;;5053380;28;20044;-27
2022/08/04 00:13:21;;;;;;;3.63;1.40;;;25.40;62.20;;;;;;5053507;28;20033;-26
2022/08/04 00:15:50;;;;;;;1.70;1.42;;;25.40;62.20;;;;;;5053475;28;20040;-25
2022/08/04 00:18:20;;;;;;;2.90;1.50;;;25.40;62.30;;;;;;5053526;28;20047;-27
2022/08/04 00:20:46;;;;;;;2.70;1.55;;;25.40;62.40;;;;;;5053319;28;20021;-26
2022/08/04 00:23:12;;;;;;;2.17;1.50;;;25.30;62.40;;;;;;5053345;28;20029;-27
2022/08/04 00:25:43;;;;;;;2.67;1.23;;;25.30;62.50;;;;;;5053427;28;20027;-26
2022/08/04 00:28:09;;;;;;;2.67;1.60;;;25.30;62.50;;;;;;5053479;28;20414;-27
2022/08/04 00:30:35;;;;;;;2.05;1.75;;;25.30;62.60;;;;;;5053114;28;20136;-26
2022/08/04 00:33:01;;;;;;;1.88;1.40;;;25.20;62.60;;;;;;5053318;28;20075;-26
2022/08/04 00:35:28;;;;;;;4.18;1.42;;;25.20;62.70;;;;;;5053293;28;20037;-25
2022/08/04 00:37:54;;;;;;;2.08;1.42;;;25.20;62.80;;;;;;5053011;28;20128;-26
2022/08/04 00:40:20;;;;;;;1.85;1.55;;;25.10;62.80;;;;;;5053013;28;20132;-29
2022/08/04 00:43:01;;;;;;;2.08;1.40;;;25.10;62.90;;;;;;5052936;28;20103;-26
2022/08/04 00:45:52;;;;;;;3.38;1.95;;;25.10;63.10;;;;;;5052913;28;20036;-26
2022/08/04 00:48:31;;;;;;;2.72;1.58;;;25.10;63.10;;;;;;5051072;28;20029;-27
2022/08/04 00:51:10;;;;;;;2.95;1.70;;;25.00;63.10;;;;;;5052903;28;20457;-25
2022/08/04 00:53:49;;;;;;;3.00;1.85;;;25.00;63.20;;;;;;5052720;28;20111;-26
2022/08/04 00:56:27;;;;;;;2.25;1.48;;;25.00;63.90;;;;;;5053137;28;20032;-26
2022/08/04 00:59:22;;;;;;;3.33;1.83;;;24.90;63.30;;;;;;5052826;28;20037;-28
2022/08/04 01:02:09;;;;;;;4.28;1.60;;;24.90;63.50;;;;;;5044294;28;20056;-25
2022/08/04 01:04:55;;;;;;;2.90;1.60;;;24.90;63.60;;;;;;5053108;28;20047;-25
2022/08/04 01:07:38;;;;;;;3.17;1.73;;;24.80;63.60;;;;;;5052584;28;20396;-26
2022/08/04 01:10:30;;;;;;;2.50;1.70;;;24.80;63.70;;;;;;5052510;28;20040;-27
2022/08/04 01:12:58;;;;;;;2.03;1.80;;;24.70;63.80;;;;;;5049438;28;20037;-28
2022/08/04 01:15:48;;;;;;;3.33;1.38;;;24.70;63.90;;;;;;5052381;28;20037;-26
2022/08/04 01:18:44;;;;;;;2.55;1.35;;;24.70;63.90;;;;;;5052159;28;20126;-26
2022/08/04 01:21:21;;;;;;;2.38;1.90;;;24.70;64.00;;;;;;5052443;28;20393;-26
2022/08/04 01:24:34;;;;;;;3.97;1.90;;;24.60;64.00;;;;;;5052355;28;20131;-26
2022/08/04 01:27:32;;;;;;;3.07;1.70;;;24.60;64.00;;;;;;5050492;28;20135;-26
2022/08/04 01:30:00;;;;;;;2.13;1.58;;;24.60;64.10;;;;;;5052784;28;20033;-26
2022/08/04 01:32:31;;;;;;;2.50;1.80;;;24.50;64.10;;;;;;5052192;28;20067;-25
2022/08/04 01:35:02;;;;;;;4.38;1.80;;;24.50;64.20;;;;;;5052219;28;20025;-26
2022/08/04 01:37:53;;;;;;;2.35;1.70;;;24.50;64.30;;;;;;5052141;28;20078;-25
2022/08/04 01:40:20;;;;;;;2.10;1.70;;;24.50;64.40;;;;;;5052369;28;20074;-25
2022/08/04 01:42:51;;;;;;;3.63;1.95;;;24.50;64.50;;;;;;5052526;28;20025;-26
2022/08/04 01:45:16;;;;;;;2.92;1.70;;;24.50;65.20;;;;;;5052334;28;20029;-26
2022/08/04 01:47:52;;;;;;;2.50;1.63;;;24.40;64.60;;;;;;5050846;28;20054;-27
2022/08/04 01:50:19;;;;;;;2.55;1.92;;;24.40;64.60;;;;;;5052294;28;20044;-26
2022/08/04 01:52:45;;;;;;;3.67;1.90;;;24.30;64.60;;;;;;5052425;28;20120;-28
2022/08/04 01:55:13;;;;;;;2.33;1.80;;;24.30;64.70;;;;;;5051175;28;20501;-27
2022/08/04 01:57:45;;;;;;;3.25;1.80;;;24.30;64.70;;;;;;5052286;28;20127;-26
2022/08/04 02:00:13;;;;;;;2.60;1.60;;;24.30;64.80;;;;;;5055073;28;20029;-29
2022/08/04 02:02:39;;;;;;;2.90;1.73;;;24.30;64.80;;;;;;5056331;28;20104;-25
2022/08/04 02:05:10;;;;;;;3.58;1.60;;;24.30;64.70;;;;;;5056337;28;20179;-25
2022/08/04 02:07:36;;;;;;;2.78;1.83;;;24.30;64.80;;;;;;5056484;28;20419;-26
2022/08/04 02:10:23;;;;;;;3.25;1.73;;;24.30;64.80;;;;;;5054535;28;20078;-27
2022/08/04 02:13:12;;;;;;;1.95;1.65;;;24.20;64.80;;;;;;5056197;28;20036;-27
2022/08/04 02:16:02;;;;;;;2.63;1.50;;;24.20;64.80;;;;;;5045438;28;20037;-27
2022/08/04 02:19:14;;;;;;;1.60;1.40;;;24.20;64.90;;;;;;5053087;28;20037;-26
2022/08/04 02:21:40;;;;;;;3.35;1.33;;;24.20;64.90;;;;;;5041397;28;20490;-28
2022/08/04 02:24:15;;;;;;;3.38;1.60;;;24.20;64.90;;;;;;5055736;28;20376;-27
2022/08/04 02:26:42;;;;;;;2.97;1.60;;;24.20;65.10;;;;;;5055627;28;20040;-26
2022/08/04 02:29:10;;;;;;;3.95;1.95;;;24.10;65.00;;;;;;5055536;28;20029;-28
2022/08/04 02:31:55;;;;;;;2.53;1.33;;;24.10;65.00;;;;;;5055892;28;20392;-26
2022/08/04 02:35:08;;;;;;;4.53;1.83;;;24.10;65.10;;;;;;5054677;28;20021;-25
2022/08/04 02:37:34;;;;;;;4.50;1.60;;;24.10;65.20;;;;;;5033136;28;20054;-29
2022/08/04 02:40:05;;;;;;;2.58;1.55;;;24.10;65.20;;;;;;5017153;28;20064;-26
2022/08/04 02:42:32;;;;;;;2.53;1.60;;;24.00;65.20;;;;;;5044531;28;20121;-30
2022/08/04 02:44:59;;;;;;;1.92;1.33;;;24.00;65.20;;;;;;5055273;28;20361;-26
2022/08/04 02:47:28;;;;;;;3.85;1.83;;;24.00;65.20;;;;;;5053950;28;20028;-29
2022/08/04 02:49:56;;;;;;;3.15;1.88;;;24.00;65.20;;;;;;5053769;28;20025;-31
2022/08/04 02:52:23;;;;;;;4.25;1.75;;;24.00;65.20;;;;;;5054977;28;20096;-26
2022/08/04 02:54:52;;;;;;;3.58;1.67;;;24.00;65.20;;;;;;5055078;28;20021;-25
2022/08/04 02:57:22;;;;;;;5.03;1.77;;;24.00;65.30;;;;;;5054977;28;20021;-26
2022/08/04 03:00:10;;;;;;;3.53;1.67;;;23.90;65.30;;;;;;5055137;28;20388;-26
2022/08/04 03:03:01;;;;;;;4.30;1.67;;;24.00;65.40;;;;;;5054971;28;20021;-25
2022/08/04 03:05:46;;;;;;;1.95;1.50;;;23.90;65.40;;;;;;5054963;28;20163;-26
2022/08/04 03:08:30;;;;;;;4.97;1.60;;;23.90;65.40;;;;;;5055101;28;20053;-26
2022/08/04 03:11:18;;;;;;;2.22;1.60;;;23.80;65.40;;;;;;5054563;28;20488;-29
2022/08/04 03:14:06;;;;;;;2.55;1.73;;;23.80;65.40;;;;;;5054884;28;20503;-26
2022/08/04 03:16:57;;;;;;;1.77;1.50;;;23.80;65.50;;;;;;5055079;28;20021;-27
2022/08/04 03:19:40;;;;;;;3.78;1.48;;;23.80;65.60;;;;;;5054573;28;20029;-27
2022/08/04 03:22:43;;;;;;;3.42;1.65;;;23.80;65.60;;;;;;5054759;28;20025;-28
2022/08/04 03:25:14;;;;;;;3.33;1.40;;;23.80;65.60;;;;;;5054638;28;20059;-26
2022/08/04 03:27:43;;;;;;;3.60;1.83;;;23.80;65.60;;;;;;5053194;28;20036;-26
2022/08/04 03:30:42;;;;;;;1.90;1.40;;;23.80;65.60;;;;;;5054810;28;20033;-26
2022/08/04 03:33:48;;;;;;;2.72;1.50;;;23.80;65.60;;;;;;5054247;28;20025;-26
2022/08/04 03:36:13;;;;;;;2.45;1.67;;;23.70;65.50;;;;;;5046108;28;20504;-25
2022/08/04 03:39:02;;;;;;;1.98;1.70;;;23.80;65.50;;;;;;5054531;28;20041;-26
2022/08/04 03:41:50;;;;;;;3.60;1.70;;;23.70;65.50;;;;;;5053413;28;20094;-27
2022/08/04 03:44:36;;;;;;;2.58;1.50;;;23.70;65.50;;;;;;5054095;28;20025;-26
2022/08/04 03:47:31;;;;;;;3.00;1.42;;;23.70;65.50;;;;;;5054121;28;20027;-26
2022/08/04 03:50:25;;;;;;;2.58;1.40;;;23.70;65.60;;;;;;5052842;28;20132;-26
2022/08/04 03:53:12;;;;;;;3.85;1.60;;;23.70;65.60;;;;;;5053967;28;20039;-29
2022/08/04 03:56:06;;;;;;;2.65;1.30;;;23.70;65.60;;;;;;5054168;28;20020;-26
2022/08/04 03:58:42;;;;;;;4.35;1.42;;;23.60;65.60;;;;;;5053832;28;20032;-28
2022/08/04 04:01:30;;;;;;;3.78;1.60;;;23.60;65.60;;;;;;5052514;28;20365;-27
2022/08/04 04:04:20;;;;;;;2.67;1.35;;;23.60;65.60;;;;;;5054335;28;20020;-26
2022/08/04 04:06:45;;;;;;;3.05;1.33;;;23.60;65.70;;;;;;5052326;28;20021;-26
2022/08/04 04:09:48;;;;;;;2.75;1.52;;;23.60;65.80;;;;;;5053858;28;20566;-27
2022/08/04 04:12:17;;;;;;;2.92;1.42;;;23.60;65.80;;;;;;5053831;28;20056;-27
2022/08/04 04:15:07;;;;;;;4.30;1.60;;;23.50;65.80;;;;;;5052222;28;20083;-26
2022/08/04 04:18:04;;;;;;;3.40;1.35;;;23.60;65.80;;;;;;5053743;28;20476;-28
2022/08/04 04:21:07;;;;;;;2.67;1.23;;;23.60;65.80;;;;;;5053327;28;20017;-27
2022/08/04 04:23:51;;;;;;;2.17;1.35;;;23.60;66.50;;;;;;5052710;28;20429;-29
2022/08/04 04:26:25;;;;;;;2.80;1.38;;;23.60;65.80;;;;;;5053451;28;20018;-26
2022/08/04 04:28:54;;;;;;;3.33;1.55;;;23.60;65.90;;;;;;5052180;28;20035;-26
2022/08/04 04:32:02;;;;;;;3.03;1.60;;;23.60;65.80;;;;;;5053661;28;20403;-26
2022/08/04 04:35:05;;;;;;;4.00;1.60;;;23.60;65.80;;;;;;5053111;28;20040;-26
2022/08/04 04:37:55;;;;;;;2.03;1.38;;;23.60;65.80;;;;;;5053002;28;20053;-26
2022/08/04 04:40:47;;;;;;;2.72;1.60;;;23.60;65.80;;;;;;5053274;28;20021;-26
2022/08/04 04:43:41;;;;;;;2.33;1.60;;;23.60;65.80;;;;;;5053090;28;20464;-26
2022/08/04 04:46:14;;;;;;;3.80;1.63;;;23.60;65.80;;;;;;5053483;28;20028;-25
2022/08/04 04:48:40;;;;;;;;;;;23.60;65.80;;;;;;5053649;28;20063;-26
2022/08/04 04:51:30;;;;;;;4.07;1.30;;;23.60;65.70;;;;;;5053440;28;19962;-25
2022/08/04 04:54:28;;;;;;;4.15;1.60;;;23.60;65.80;;;;;;5053168;28;20098;-26
2022/08/04 04:57:14;;;;;;;5.40;1.50;;;23.60;65.80;;;;;;5049013;28;20065;-26
2022/08/04 04:59:52;;;;;;;4.22;1.70;;;23.70;65.80;;;;;;5053417;28;20499;-27
2022/08/04 05:02:32;;;;;;;2.20;1.58;;;23.70;65.80;;;;;;5053412;28;20028;-27
2022/08/04 05:05:10;;;;;;;6.03;1.77;;;23.70;65.80;;;;;;5052788;28;20024;-26
2022/08/04 05:08:06;;;;;;;5.22;2.05;;;23.80;65.80;;;;;;5052633;28;20025;-28
2022/08/04 05:11:00;;;;;;;2.47;1.38;;;23.80;65.70;;;;;;5052421;28;20060;-25
2022/08/04 05:13:35;;;;;;;3.67;1.70;;;23.80;65.60;;;;;;5052525;28;20479;-26
2022/08/04 05:16:18;;;;;;;5.22;1.88;;;23.90;65.50;;;;;;5052567;28;20025;-26
2022/08/04 05:18:55;;;;;;;3.58;1.40;;;24.00;65.40;;;;;;5052240;28;20025;-29
2022/08/04 05:21:42;;;;;;;5.78;2.05;;;24.00;65.40;;;;;;5052374;28;20515;-26
2022/08/04 05:24:10;;;;;;;5.55;1.92;;;24.00;65.30;;;;;;5052760;28;20053;-26
2022/08/04 05:26:51;;;;;;;3.30;2.00;;;24.00;65.30;;;;;;5052432;28;20029;-26
2022/08/04 05:29:30;;;;;;;3.10;1.63;;;24.10;65.50;;;;;;5052702;28;20343;-27
2022/08/04 05:31:58;;;;;;;3.95;1.90;;;24.00;65.50;;;;;;5052543;28;20389;-25
2022/08/04 05:34:29;;;;;;;5.80;2.03;;;24.10;65.50;;;;;;5052377;28;20060;-26
2022/08/04 05:36:58;;;;;;;3.92;1.95;;;24.20;65.40;;;;;;5052220;28;20075;-26
2022/08/04 05:39:26;;;;;;;3.83;1.95;;;24.30;65.40;;;;;;5052588;28;20025;-28
2022/08/04 05:41:53;;;;;;;3.75;2.03;;;24.40;65.30;;;;;;5052607;28;20021;-29
2022/08/04 05:44:22;;;;;;;5.85;2.08;;;24.40;65.10;;;;;;5052442;28;20024;-26
2022/08/04 05:46:51;;;;;;;3.50;2.05;;;24.50;65.00;;;;;;5051036;28;20025;-26
2022/08/04 05:49:18;;;;;;;3.22;2.15;;;24.60;64.90;;;;;;5052623;28;20036;-26
2022/08/04 05:51:45;;;;;;;4.75;1.80;;;24.70;64.70;;;;;;5052292;28;20087;-26
2022/08/04 05:54:13;;;;;;;3.20;1.73;;;24.70;64.60;;;;;;5052201;28;20530;-26
2022/08/04 05:56:39;;;;;;;5.68;2.00;;;24.80;64.50;;;;;;5052144;28;20017;-28
2022/08/04 05:59:06;;;;;;;2.58;1.90;;;24.90;64.40;;;;;;5052380;28;20025;-33
2022/08/04 06:01:32;;;;;;;5.53;2.10;;;24.90;64.30;;;;;;5050755;28;20071;-28
2022/08/04 06:04:01;;;;;;;4.30;1.85;;;24.90;64.20;;;;;;5050640;28;20162;-26
2022/08/04 06:06:29;;;;;;;4.30;2.10;;;25.00;64.10;;;;;;5052205;28;20026;-25
2022/08/04 06:08:55;;;;;;;2.95;1.98;;;25.10;64.10;;;;;;5050723;28;20051;-26
2022/08/04 06:11:22;;;;;;;5.25;2.67;;;25.10;64.00;;;;;;5052267;28;20534;-26
2022/08/04 06:13:53;;;;;;;2.67;1.80;;;25.10;63.90;;;;;;5051910;28;20101;-28
2022/08/04 06:16:22;;;;;;;3.55;2.00;;;25.20;63.90;;;;;;5050753;28;20025;-26
2022/08/04 06:18:52;;;;;;;4.35;1.98;;;25.20;63.70;;;;;;5051984;28;20025;-27
2022/08/04 06:21:25;;;;;;;3.38;1.90;;;25.30;63.50;;;;;;5050578;28;20052;-27
2022/08/04 06:23:53;;;;;;;3.35;1.83;;;25.40;63.40;;;;;;5052035;28;20061;-26
2022/08/04 06:26:19;;;;;;;6.43;2.13;;;25.50;63.40;;;;;;5050876;28;20045;-26
2022/08/04 06:28:49;;;;;;;5.72;2.25;;;25.60;63.30;;;;;;5050462;28;20051;-28
2022/08/04 06:31:30;;;;;;;3.35;1.92;;;25.60;63.00;;;;;;5052290;28;20029;-28
2022/08/04 06:34:03;;;;;;;4.43;2.20;;;25.60;62.80;;;;;;5051622;28;20049;-26
2022/08/04 06:36:30;;;;;;;4.47;2.15;;;25.70;62.70;;;;;;5051845;28;20538;-30
2022/08/04 06:38:59;;;;;;;2.50;1.80;;;25.80;62.70;;;;;;5050211;28;20051;-27
2022/08/04 06:41:25;;;;;;;3.83;1.88;;;25.90;62.50;;;;;;5051884;28;20048;-37
2022/08/04 06:43:52;;;;;;;5.22;1.85;;;26.00;62.40;;;;;;5051891;28;20020;-26
2022/08/04 06:46:18;;;;;;;4.72;1.85;;;26.10;62.10;;;;;;5054310;28;20025;-36
2022/08/04 06:48:45;;;;;;;3.30;1.90;;;26.20;61.90;;;;;;5055250;28;20074;-27
2022/08/04 06:51:13;;;;;;;6.45;2.17;;;26.30;61.80;;;;;;5055429;28;20064;-28
2022/08/04 06:53:38;;;;;;;3.85;1.85;;;26.30;61.50;;;;;;5055207;28;20393;-31
2022/08/04 06:56:04;;;;;;;3.95;1.92;;;26.40;61.40;;;;;;5055422;28;20035;-26
2022/08/04 06:58:31;;;;;;;4.47;1.92;;;26.50;61.30;;;;;;5037199;28;20484;-25
2022/08/04 07:01:01;;;;;;;3.38;1.90;;;26.60;61.10;;;;;;5055488;28;20025;-27
2022/08/04 07:03:28;;;;;;;5.00;2.15;;;26.60;60.80;;;;;;5055065;28;20033;-27
2022/08/04 07:05:54;;;;;;;4.32;2.00;;;26.70;60.60;;;;;;5055007;28;20465;-28
2022/08/04 07:08:21;;;;;;;5.40;2.00;;;26.80;60.50;;;;;;5055205;28;20033;-27
2022/08/04 07:10:47;;;;;;;5.72;1.85;;;26.80;60.30;;;;;;5054878;28;20029;-30
2022/08/04 07:13:14;;;;;;;3.00;1.70;;;26.90;60.20;;;;;;5055210;28;20024;-27
2022/08/04 07:15:43;;;;;;;6.13;2.20;;;27.00;60.00;;;;;;5053423;28;20021;-26
2022/08/04 07:18:09;;;;;;;7.13;2.28;;;27.00;59.80;;;;;;5054834;28;20053;-29
2022/08/04 07:20:38;;;;;;;5.60;2.05;;;27.10;59.60;;;;;;5054667;28;20494;-27
2022/08/04 07:23:05;;;;;;;4.65;1.80;;;27.10;59.30;;;;;;5054871;28;20021;-26
2022/08/04 07:25:32;;;;;;;2.80;1.60;;;27.20;59.70;;;;;;5054481;28;20064;-29
2022/08/04 07:27:58;;;;;;;4.22;1.65;;;27.30;59.00;;;;;;5054469;28;20021;-29
2022/08/04 07:30:25;;;;;;;3.97;1.95;;;27.40;58.80;;;;;;5054302;28;20025;-26
2022/08/04 07:32:52;;;;;;;6.65;2.08;;;27.50;58.60;;;;;;5054321;28;20105;-27
2022/08/04 07:35:18;;;;;;;4.32;2.10;;;27.50;58.30;;;;;;5054480;28;20029;-25
2022/08/04 07:37:43;;;;;;;4.30;1.85;;;27.70;58.20;;;;;;5052656;28;20191;-24
2022/08/04 07:40:09;;;;;;;3.45;1.65;;;27.70;57.80;;;;;;5054484;28;20040;-25
2022/08/04 07:42:36;;;;;;;4.57;2.03;;;27.70;57.50;;;;;;5052933;28;20021;-26
2022/08/04 07:45:01;;;;;;;4.63;2.15;;;27.80;57.40;;;;;;5054415;28;20017;-25
2022/08/04 07:47:27;;;;;;;5.18;2.00;;;27.90;57.20;;;;;;5054389;28;20027;-27
2022/08/04 07:49:54;;;;;;;5.10;2.10;;;27.90;57.10;;;;;;5054428;28;20384;-25
2022/08/04 07:52:21;;;;;;;4.68;1.90;;;28.00;57.00;;;;;;5054313;28;20025;-27
2022/08/04 07:54:48;;;;;;;7.03;1.90;;;28.10;56.90;;;;;;5052863;28;20087;-29
2022/08/04 07:57:17;;;;;;;4.28;2.15;;;28.20;56.70;;;;;;5054279;28;20483;-28
2022/08/04 07:59:43;;;;;;;3.78;2.10;;;28.20;56.30;;;;;;5053680;28;20029;-25
2022/08/04 08:02:10;;;;;;;5.93;1.88;;;28.20;56.10;;;;;;5054211;28;20024;-26
2022/08/04 08:04:35;;;;;;;6.75;2.25;;;28.30;56.00;;;;;;5053814;28;20086;-26
2022/08/04 08:07:01;;;;;;;6.65;1.90;;;28.30;55.70;;;;;;5053784;28;20472;-27
2022/08/04 08:09:32;;;;;;;5.43;2.05;;;28.30;55.50;;;;;;5053752;28;20028;-26
2022/08/04 08:11:57;;;;;;;6.00;2.15;;;28.40;55.30;;;;;;5053647;28;20025;-26
2022/08/04 08:14:23;;;;;;;3.47;1.50;;;28.40;55.10;;;;;;5053555;28;20029;-28
2022/08/04 08:16:49;;;;;;;5.35;1.75;;;28.40;55.10;;;;;;5053449;28;20029;-27
2022/08/04 08:19:15;;;;;;;4.93;1.55;;;28.40;55.00;;;;;;5053470;28;20460;-30
2022/08/04 08:21:48;;;;;;;4.72;1.80;;;28.50;55.00;;;;;;5053390;28;20056;-26
2022/08/04 08:24:15;;;;;;;3.58;1.40;;;28.50;55.00;;;;;;5053689;28;20025;-26
2022/08/04 08:26:41;;;;;;;4.60;1.67;;;28.50;55.20;;;;;;5053450;28;20029;-27
2022/08/04 08:29:07;;;;;;;5.30;2.03;;;28.60;55.10;;;;;;5052296;28;20107;-26
2022/08/04 08:31:33;;;;;;;7.38;2.10;;;28.70;54.90;;;;;;5053542;28;20135;-25
2022/08/04 08:34:00;;;;;;;3.92;1.90;;;28.70;54.80;;;;;;5053170;28;20443;-27
2022/08/04 08:36:42;;;;;;;6.68;1.90;;;28.80;54.80;;;;;;5053389;28;20473;-25
2022/08/04 08:39:08;;;;;;;3.30;1.80;;;28.80;54.80;;;;;;5052967;28;20493;-28
2022/08/04 08:41:42;;;;;;;6.53;2.53;;;28.80;54.80;;;;;;5053081;28;20021;-27
2022/08/04 08:44:35;;;;;;;4.10;1.85;;;28.90;54.60;;;;;;5053014;28;20028;-27
2022/08/04 08:47:18;;;;;;;3.95;1.67;;;28.90;54.50;;;;;;5053230;28;20028;-25
2022/08/04 08:50:16;;;;;;;4.00;1.60;;;28.90;54.50;;;;;;5053040;28;20036;-27
2022/08/04 08:53:19;;;;;;;4.50;1.83;;;28.90;54.50;;;;;;5052937;28;20048;-26
2022/08/04 08:56:06;;;;;;;3.20;1.90;;;29.00;54.60;;;;;;5053021;28;20084;-26
2022/08/04 08:59:14;;;;;;;4.43;1.80;;;29.00;54.70;;;;;;5052664;28;20444;-26
2022/08/04 09:02:01;;;;;;;3.60;1.80;;;29.10;54.90;;;;;;5053166;28;20017;-27
2022/08/04 09:04:50;;;;;;;2.97;1.88;;;29.20;54.90;;;;;;5052797;28;20029;-26
2022/08/04 09:07:37;;;;;;;7.85;2.35;;;29.20;54.90;;;;;;5053140;28;20055;-26
2022/08/04 09:10:14;;;;;;;6.55;1.80;;;29.20;55.00;;;;;;5052608;28;20147;-26
2022/08/04 09:13:07;;;;;;;6.78;1.95;;;29.20;55.00;;;;;;5052624;28;20088;-25
2022/08/04 09:15:57;;;;;;;5.10;1.90;;;29.20;55.10;;;;;;5052594;28;20032;-26
2022/08/04 09:18:46;;;;;;;5.28;2.17;;;29.30;55.00;;;;;;5052167;28;20017;-25
2022/08/04 09:21:23;;;;;;;6.45;2.10;;;29.40;54.70;;;;;;5052365;28;20032;-28
2022/08/04 09:23:58;;;;;;;4.82;2.15;;;29.40;54.60;;;;;;5052783;28;20021;-27
2022/08/04 09:26:33;;;;;;;3.33;2.25;;;29.40;54.60;;;;;;5052328;28;20469;-27
2022/08/04 09:29:19;;;;;;;4.68;2.15;;;29.50;54.70;;;;;;5052690;28;20025;-28
2022/08/04 09:32:06;;;;;;;6.43;2.35;;;29.40;54.60;;;;;;5051203;28;20428;-27
2022/08/04 09:34:54;;;;;;;4.75;2.10;;;29.40;54.70;;;;;;5052554;28;20388;-28
2022/08/04 09:37:41;;;;;;;3.88;2.20;;;29.30;54.80;;;;;;5052546;28;20397;-27
2022/08/04 09:40:20;;;;;;;5.80;2.60;;;29.30;54.80;;;;;;5052325;28;20031;-28
2022/08/04 09:43:00;;;;;;;8.85;2.65;;;29.30;55.00;;;;;;5052136;28;20065;-28
2022/08/04 09:45:28;;;;;;;5.07;2.40;;;29.30;55.10;;;;;;5052190;28;20032;-26
2022/08/04 09:48:04;;;;;;;4.80;2.83;;;29.30;55.20;;;;;;5052094;28;20420;-26
2022/08/04 09:50:36;;;;;;;9.43;2.53;;;29.30;55.40;;;;;;5052508;28;20392;-27
2022/08/04 09:53:29;;;;;;;6.75;2.38;;;29.30;55.40;;;;;;5050836;28;20025;-25
2022/08/04 09:56:01;;;;;;;;;;;29.30;55.40;;;;;;5052636;28;20376;-28
2022/08/04 09:58:36;;;;;;;4.07;2.05;;;29.40;55.40;;;;;;5052247;28;20393;-27
2022/08/04 10:01:12;;;;;;;7.07;2.53;;;29.50;55.40;;;;;;5051929;28;20025;-26
2022/08/04 10:03:42;;;;;;;7.70;2.22;;;29.60;55.20;;;;;;5050980;28;20112;-27
2022/08/04 10:06:23;;;;;;;7.60;2.17;;;29.60;54.90;;;;;;5050892;28;20040;-26
2022/08/04 10:09:16;;;;;;;2.75;1.85;;;29.70;54.50;;;;;;5052280;28;20052;-26
2022/08/04 10:12:14;;;;;;;4.30;2.10;;;29.80;54.40;;;;;;5052091;28;20032;-28
2022/08/04 10:14:57;;;;;;;3.40;2.10;;;29.80;54.50;;;;;;5052175;28;20052;-26
2022/08/04 10:17:34;;;;;;;5.22;1.80;;;29.70;54.20;;;;;;5051888;28;20031;-27
2022/08/04 10:20:21;;;;;;;2.38;1.63;;;29.60;54.00;;;;;;5052330;28;20040;-27
2022/08/04 10:22:59;;;;;;;6.53;2.05;;;29.60;54.10;;;;;;5056014;28;20423;-29
2022/08/04 10:26:02;;;;;;;4.88;2.33;;;29.60;54.20;;;;;;5056111;28;20053;-32
2022/08/04 10:28:30;;;;;;;2.40;1.50;;;29.60;53.90;;;;;;5049295;28;20029;-26
2022/08/04 10:31:03;;;;;;;4.05;1.70;;;29.50;54.00;;;;;;5055945;28;20473;-29
2022/08/04 10:33:48;;;;;;;3.22;1.80;;;29.50;54.10;;;;;;5055592;28;20021;-27
2022/08/04 10:36:20;;;;;;;6.22;1.52;;;29.40;54.10;;;;;;5055392;28;20503;-26
2022/08/04 10:38:56;;;;;;;8.73;1.83;;;29.30;54.20;;;;;;5055287;28;20064;-29
2022/08/04 10:41:41;;;;;;;5.70;2.00;;;29.30;54.30;;;;;;5055729;28;20024;-27
2022/08/04 10:44:31;;;;;;;6.25;1.85;;;29.30;54.40;;;;;;5055943;28;20083;-26
2022/08/04 10:47:01;;;;;;;6.22;2.00;;;29.30;54.50;;;;;;5055220;28;20029;-27
2022/08/04 10:49:35;;;;;;;4.03;1.52;;;29.20;54.70;;;;;;5055296;28;20017;-26
2022/08/04 10:52:16;;;;;;;5.82;2.10;;;28.90;54.80;;;;;;5055082;28;20029;-27
2022/08/04 10:54:46;;;;;;;3.35;1.70;;;28.70;55.10;;;;;;5055160;28;20564;-25
2022/08/04 10:57:47;;;;;;;5.72;1.90;;;28.50;55.70;;;;;;5055141;28;20047;-30
2022/08/04 11:00:18;;;;;;;6.00;1.95;;;28.20;56.60;;;;;;5043429;28;20117;-31
2022/08/04 11:03:14;;;;;;;5.45;1.73;;;28.10;57.30;;;;;;5054885;28;20023;-28
2022/08/04 11:05:51;;;;;;;4.63;2.10;;;27.90;57.90;;;;;;5055479;28;20013;-27
2022/08/04 11:08:35;;;;;;;3.25;1.80;;;27.70;59.20;;;;;;5053805;28;20435;-26
2022/08/04 11:11:23;;;;;;;6.88;1.70;;;27.40;60.40;;;;;;5055314;28;20499;-26
2022/08/04 11:14:14;;;;;;;3.58;2.00;;;27.10;61.60;;;;;;5054838;28;20032;-26
2022/08/04 11:16:48;;;;;;;2.78;1.52;;;26.80;62.60;;;;;;5044816;28;20105;-30
2022/08/04 11:19:37;;;;;;;5.13;1.45;;;26.70;63.40;;;;;;5054678;28;20031;-35
2022/08/04 11:22:09;;;;;;;2.75;1.42;;;26.60;64.60;;;;;;5055024;28;20047;-26
2022/08/04 11:24:51;;;;;;;4.93;1.90;;;26.60;65.00;;;;;;5055116;28;20416;-27
2022/08/04 11:27:47;;;;;;;2.85;1.50;;;26.50;65.40;;;;;;5053997;28;20025;-27
2022/08/04 11:30:14;;;;;;;4.53;1.70;;;26.50;66.00;;;;;;5054840;28;20040;-29
2022/08/04 11:33:03;;;;;;;3.67;1.80;;;26.40;66.10;;;;;;5054335;28;20021;-29
2022/08/04 11:35:45;;;;;;;5.35;1.92;;;26.30;67.10;;;;;;5054471;28;20062;-26
2022/08/04 11:38:28;;;;;;;3.80;1.50;;;26.20;67.70;;;;;;5054716;28;20033;-27
2022/08/04 11:41:00;;;;;;;2.80;1.50;;;26.10;68.40;;;;;;5054784;28;20405;-26
2022/08/04 11:43:43;;;;;;;2.72;1.50;;;26.10;68.70;;;;;;5054291;28;20010;-28
2022/08/04 11:46:17;;;;;;;5.25;1.50;;;26.00;69.10;;;;;;5054243;28;20029;-26
2022/08/04 11:49:04;;;;;;;3.90;1.80;;;26.10;69.20;;;;;;5054506;28;20093;-28
2022/08/04 11:51:32;;;;;;;4.95;1.73;;;26.00;69.20;;;;;;5054174;28;20032;-29
2022/08/04 11:53:59;;;;;;;5.97;1.65;;;26.00;69.30;;;;;;5054020;28;20079;-26
2022/08/04 11:56:26;;;;;;;3.72;1.60;;;26.00;69.60;;;;;;5052639;28;20112;-26
2022/08/04 11:58:53;;;;;;;3.78;1.70;;;26.10;70.30;;;;;;5053872;28;20108;-25
2022/08/04 12:01:27;;;;;;;3.25;1.50;;;26.10;69.50;;;;;;5054158;28;20082;-26
2022/08/04 12:04:11;;;;;;;4.88;1.58;;;26.20;69.90;;;;;;5054121;28;20376;-26
2022/08/04 12:06:56;;;;;;;3.15;1.73;;;26.30;69.70;;;;;;5053662;28;20108;-29
2022/08/04 12:09:55;;;;;;;4.05;1.50;;;26.30;69.50;;;;;;5053692;28;20032;-25
2022/08/04 12:12:40;;;;;;;3.38;1.70;;;26.30;69.20;;;;;;5053897;28;20029;-26
2022/08/04 12:15:28;;;;;;;2.40;1.75;;;26.30;69.30;;;;;;5052198;28;20025;-26
2022/08/04 12:17:53;;;;;;;4.35;1.85;;;26.30;69.60;;;;;;5053359;28;20495;-29
2022/08/04 12:20:21;;;;;;;5.18;1.83;;;26.20;69.70;;;;;;5053628;28;20017;-26
2022/08/04 12:22:50;;;;;;;3.00;1.85;;;26.20;69.90;;;;;;5053411;28;20025;-27
2022/08/04 12:25:23;;;;;;;3.88;1.75;;;26.20;70.20;;;;;;5053415;28;20377;-25
2022/08/04 12:28:06;;;;;;;2.50;1.70;;;26.20;70.20;;;;;;5053267;28;20032;-25
2022/08/04 12:30:44;;;;;;;2.28;1.50;;;26.30;70.00;;;;;;5053637;28;20052;-24
2022/08/04 12:33:37;;;;;;;3.38;1.75;;;26.30;69.90;;;;;;5053248;28;20124;-25
2022/08/04 12:36:38;;;;;;;3.55;1.88;;;26.40;69.70;;;;;;5053421;28;20100;-28
2022/08/04 12:39:18;;;;;;;1.92;1.38;;;26.50;69.60;;;;;;5052802;28;20489;-26
2022/08/04 12:42:09;;;;;;;3.03;1.83;;;26.60;69.50;;;;;;5053365;28;20033;-26
2022/08/04 12:44:37;;;;;;;6.30;2.38;;;26.70;69.10;;;;;;5052499;28;20025;-28
2022/08/04 12:47:08;;;;;;;5.40;1.70;;;26.70;69.10;;;;;;5052846;28;20063;-29
2022/08/04 12:49:38;;;;;;;3.75;2.25;;;26.70;69.10;;;;;;5052663;28;20111;-25
2022/08/04 12:52:07;;;;;;;1.98;1.52;;;26.70;69.00;;;;;;5051715;28;20056;-24
2022/08/04 12:54:37;;;;;;;3.08;1.80;;;26.70;69.10;;;;;;5052882;28;20413;-27
2022/08/04 12:57:05;;;;;;;3.17;1.70;;;26.70;69.30;;;;;;5052933;28;20028;-28
2022/08/04 12:59:43;;;;;;;4.50;1.83;;;26.80;69.50;;;;;;5052708;28;20033;-26
2022/08/04 13:02:24;;;;;;;4.90;2.28;;;27.00;69.30;;;;;;5051313;28;20021;-28
2022/08/04 13:04:52;;;;;;;2.65;1.63;;;27.10;68.90;;;;;;5052709;28;20028;-27
2022/08/04 13:07:21;;;;;;;4.97;2.13;;;27.10;68.40;;;;;;5052730;28;20075;-36
2022/08/04 13:09:47;;;;;;;2.88;1.70;;;27.10;68.40;;;;;;5052819;28;20017;-27
2022/08/04 13:12:14;;;;;;;3.35;1.88;;;27.20;68.00;;;;;;5052702;28;20029;-27
2022/08/04 13:14:44;;;;;;;2.55;1.58;;;27.20;67.50;;;;;;5052840;28;20100;-26
2022/08/04 13:17:12;;;;;;;1.38;1.27;;;27.30;67.10;;;;;;5052452;28;20028;-27
2022/08/04 13:23:08;;;;;;;3.75;1.67;;;27.40;66.10;;;;;;5052632;28;20051;-27
2022/08/04 13:25:40;;;;;;;1.80;1.30;;;27.40;65.60;;;;;;5052986;28;20476;-27
2022/08/04 13:28:14;;;;;;;3.47;1.38;;;27.50;65.00;;;;;;5052225;28;20108;-26
2022/08/04 13:30:43;;;;;;;1.63;1.20;;;27.80;64.70;;;;;;5052268;28;20033;-26
2022/08/04 13:33:09;;;;;;;3.70;1.50;;;27.90;64.30;;;;;;5051073;28;20032;-30
2022/08/04 13:39:05;;;;;;;2.13;1.30;;;28.20;63.40;;;;;;5037116;28;20462;-27
2022/08/04 13:41:32;;;;;;;3.53;1.40;;;28.30;63.30;;;;;;5051400;28;20048;-26
2022/08/04 13:44:01;;;;;;;1.83;1.20;;;28.50;63.10;;;;;;5051413;28;20043;-26